createdAt,value
2023-02-28T00:00:11.337Z,11.18
2023-02-28T00:03:00.959Z,9.55
2023-02-28T00:05:48.305Z,6.18
2023-02-28T00:08:35.993Z,5.47
2023-02-28T00:11:24.372Z,5.90
2023-02-28T00:14:12.284Z,6.40
2023-02-28T00:17:00.378Z,5.55
2023-02-28T00:19:50.836Z,5.57
2023-02-28T00:22:40.122Z,7.25
2023-02-28T00:25:28.761Z,8.93
2023-02-28T00:28:16.218Z,6.38
2023-02-28T00:31:03.763Z,7.18
2023-02-28T00:33:53.039Z,7.43
2023-02-28T00:36:46.672Z,6.80
2023-02-28T00:39:35.623Z,7.30
2023-02-28T00:42:23.251Z,8.00
2023-02-28T00:45:11.521Z,6.45
2023-02-28T00:47:59.512Z,7.78
2023-02-28T00:50:46.976Z,7.35
2023-02-28T00:53:35.975Z,9.30
2023-02-28T00:56:23.419Z,6.90
2023-02-28T00:59:12.347Z,7.95
2023-02-28T01:02:00.828Z,8.07
2023-02-28T01:04:48.995Z,7.78
2023-02-28T01:07:36.357Z,8.90
2023-02-28T01:10:25.221Z,6.90
2023-02-28T01:13:13.226Z,7.07
2023-02-28T01:16:00.975Z,9.05
2023-02-28T01:18:48.652Z,9.70
2023-02-28T01:21:38.632Z,11.55
2023-02-28T01:24:26.744Z,11.10
2023-02-28T01:27:15.543Z,10.15
2023-02-28T01:30:03.011Z,8.18
2023-02-28T01:32:52.533Z,7.20
2023-02-28T01:35:41.245Z,7.70
2023-02-28T01:38:30.274Z,6.57
2023-02-28T01:41:21.228Z,8.88
2023-02-28T01:44:45.098Z,8.23
2023-02-28T01:47:32.078Z,8.00
2023-02-28T01:50:23.144Z,7.22
2023-02-28T01:53:16.053Z,7.90
2023-02-28T01:56:09.433Z,7.97
2023-02-28T02:01:45.908Z,6.80
2023-02-28T02:04:39.717Z,8.07
2023-02-28T02:07:29.086Z,5.97
2023-02-28T02:10:22.974Z,8.23
2023-02-28T02:13:22.188Z,8.85
2023-02-28T02:16:21.537Z,7.95
2023-02-28T02:19:31.234Z,10.90
2023-02-28T02:22:41.695Z,7.65
2023-02-28T02:25:32.591Z,7.93
2023-02-28T02:28:53.316Z,8.13
2023-02-28T02:32:03.951Z,8.18
2023-02-28T02:35:04.314Z,7.90
2023-02-28T02:37:59.673Z,7.90
2023-02-28T02:40:53.426Z,7.88
2023-02-28T02:43:47.618Z,8.50
2023-02-28T02:46:37.969Z,7.32
2023-02-28T02:49:29.576Z,9.25
2023-02-28T02:52:24.176Z,8.02
2023-02-28T02:55:17.718Z,9.68
2023-02-28T02:58:09.955Z,7.65
2023-02-28T03:01:01.894Z,8.50
2023-02-28T03:03:50.215Z,7.63
2023-02-28T03:06:37.974Z,9.57
2023-02-28T03:09:28.599Z,9.75
2023-02-28T03:12:16.713Z,10.23
2023-02-28T03:15:16.180Z,8.75
2023-02-28T03:18:10.407Z,11.98
2023-02-28T03:21:12.286Z,8.13
2023-02-28T03:24:07.736Z,9.02
2023-02-28T03:27:09.738Z,10.13
2023-02-28T03:30:05.298Z,9.57
2023-02-28T03:32:59.848Z,12.63
2023-02-28T03:35:54.806Z,10.55
2023-02-28T03:38:46.482Z,10.00
2023-02-28T03:41:40.156Z,12.10
2023-02-28T03:44:35.029Z,12.95
2023-02-28T03:47:27.238Z,12.10
2023-02-28T03:50:21.245Z,10.57
2023-02-28T03:53:14.341Z,8.80
2023-02-28T03:56:08.716Z,10.05
2023-02-28T03:59:03.303Z,11.77
2023-02-28T04:01:53.140Z,12.25
2023-02-28T04:04:46.367Z,11.50
2023-02-28T04:07:34.838Z,13.25
2023-02-28T04:10:22.940Z,11.98
2023-02-28T04:13:10.518Z,10.57
2023-02-28T04:15:59.372Z,15.35
2023-02-28T04:18:48.388Z,11.60
2023-02-28T04:21:41.391Z,11.93
2023-02-28T04:24:32.253Z,11.00
2023-02-28T04:27:20.591Z,12.70
2023-02-28T04:30:09.291Z,14.30
2023-02-28T04:33:00.509Z,15.50
2023-02-28T04:35:49.684Z,13.55
2023-02-28T04:38:38.794Z,15.80
2023-02-28T04:41:28.070Z,16.30
2023-02-28T04:44:18.155Z,15.48
2023-02-28T04:47:05.773Z,16.40
2023-02-28T04:49:53.706Z,13.63
2023-02-28T04:52:42.736Z,15.05
2023-02-28T04:55:30.515Z,14.40
2023-02-28T04:58:23.602Z,14.95
2023-02-28T05:01:21.467Z,15.55
2023-02-28T05:04:08.854Z,15.95
2023-02-28T05:06:56.761Z,15.90
2023-02-28T05:09:45.429Z,14.68
2023-02-28T05:12:32.962Z,15.52
2023-02-28T05:15:20.597Z,17.40
2023-02-28T05:18:08.433Z,14.85
2023-02-28T05:20:56.714Z,16.95
2023-02-28T05:23:44.330Z,16.60
2023-02-28T05:26:42.242Z,19.15
2023-02-28T05:29:29.922Z,17.15
2023-02-28T05:32:20.563Z,16.90
2023-02-28T05:35:08.639Z,18.35
2023-02-28T05:37:56.499Z,18.92
2023-02-28T05:40:47.551Z,14.98
2023-02-28T05:43:37.122Z,16.90
2023-02-28T05:46:24.626Z,20.52
2023-02-28T05:49:14.450Z,19.25
2023-02-28T05:52:07.348Z,18.33
2023-02-28T05:57:43.460Z,20.65
2023-02-28T06:00:32.461Z,18.20
2023-02-28T06:03:20.120Z,22.50
2023-02-28T06:06:07.707Z,22.88
2023-02-28T06:08:57.374Z,34.47
2023-02-28T06:11:44.502Z,20.65
2023-02-28T06:14:32.996Z,24.23
2023-02-28T06:17:21.730Z,17.20
2023-02-28T06:20:10.854Z,23.90
2023-02-28T06:23:00.106Z,22.80
2023-02-28T06:25:48.785Z,23.88
2023-02-28T06:28:37.237Z,21.70
2023-02-28T06:31:27.357Z,24.13
2023-02-28T06:34:16.877Z,23.50
2023-02-28T06:37:07.108Z,22.60
2023-02-28T06:39:54.825Z,23.95
2023-02-28T06:42:42.426Z,29.05
2023-02-28T06:45:31.602Z,24.92
2023-02-28T06:48:23.241Z,22.55
2023-02-28T06:51:15.669Z,20.25
2023-02-28T06:54:03.297Z,25.42
2023-02-28T06:56:50.771Z,21.83
2023-02-28T06:59:38.738Z,24.88
2023-02-28T07:02:26.770Z,22.98
2023-02-28T07:05:14.092Z,27.70
2023-02-28T07:08:07.125Z,26.10
2023-02-28T07:10:55.761Z,22.10
2023-02-28T07:13:45.652Z,20.55
2023-02-28T07:16:32.951Z,22.88
2023-02-28T07:19:23.070Z,27.13
2023-02-28T07:22:10.784Z,20.38
2023-02-28T07:24:59.208Z,25.02
2023-02-28T07:27:46.500Z,27.27
2023-02-28T07:30:33.545Z,24.48
2023-02-28T07:33:20.838Z,25.42
2023-02-28T07:36:15.378Z,24.05
2023-02-28T07:39:06.277Z,23.88
2023-02-28T07:41:58.332Z,25.02
2023-02-28T07:44:47.184Z,23.95
2023-02-28T07:47:34.664Z,27.75
2023-02-28T07:50:22.043Z,26.30
2023-02-28T07:53:09.386Z,22.77
2023-02-28T07:55:59.969Z,21.23
2023-02-28T07:58:56.890Z,29.48
2023-02-28T08:01:56.563Z,23.92
2023-02-28T08:04:45.262Z,23.40
2023-02-28T08:07:33.581Z,25.55
2023-02-28T08:10:20.730Z,26.63
2023-02-28T08:13:07.840Z,26.63
2023-02-28T08:15:56.463Z,27.00
2023-02-28T08:18:43.487Z,23.48
2023-02-28T08:21:31.434Z,26.73
2023-02-28T08:24:18.830Z,24.00
2023-02-28T08:27:05.989Z,25.13
2023-02-28T08:30:10.940Z,26.40
2023-02-28T08:33:41.662Z,25.52
2023-02-28T08:36:31.028Z,23.13
2023-02-28T08:39:18.119Z,22.33
2023-02-28T08:42:07.871Z,27.08
2023-02-28T08:44:55.306Z,26.10
2023-02-28T08:47:42.631Z,27.80
2023-02-28T08:51:06.712Z,25.90
2023-02-28T08:54:00.379Z,16.23
2023-02-28T08:56:48.431Z,22.85
2023-02-28T08:59:35.777Z,22.77
2023-02-28T09:02:22.882Z,23.35
2023-02-28T09:05:11.639Z,27.65
2023-02-28T09:07:58.711Z,26.92
2023-02-28T09:10:47.214Z,26.33
2023-02-28T09:13:34.910Z,23.00
2023-02-28T09:16:22.672Z,26.20
2023-02-28T09:19:12.639Z,24.05
2023-02-28T09:21:59.872Z,25.88
2023-02-28T09:24:47.283Z,26.25
2023-02-28T09:27:35.634Z,26.10
2023-02-28T09:30:22.893Z,29.40
2023-02-28T09:33:11.178Z,29.88
2023-02-28T09:36:04.488Z,25.33
2023-02-28T09:41:49.986Z,21.98
2023-02-28T09:44:45.906Z,29.25
2023-02-28T09:47:37.188Z,23.33
2023-02-28T09:50:34.131Z,21.58
2023-02-28T09:53:30.085Z,20.95
2023-02-28T09:56:27.718Z,24.00
2023-02-28T09:59:28.281Z,26.67
2023-02-28T10:02:33.231Z,25.30
2023-02-28T10:05:23.464Z,26.85
2023-02-28T10:08:18.072Z,25.20
2023-02-28T10:11:10.434Z,24.70
2023-02-28T10:14:05.827Z,23.80
2023-02-28T10:16:58.236Z,22.38
2023-02-28T10:19:53.202Z,23.20
2023-02-28T10:22:52.049Z,25.23
2023-02-28T10:25:41.318Z,28.65
2023-02-28T10:28:32.152Z,22.52
2023-02-28T10:31:22.667Z,26.48
2023-02-28T10:34:15.428Z,21.52
2023-02-28T10:37:11.216Z,20.38
2023-02-28T10:39:58.472Z,22.90
2023-02-28T10:42:58.995Z,23.20
2023-02-28T10:46:00.066Z,20.75
2023-02-28T10:48:52.773Z,21.15
2023-02-28T10:51:41.987Z,29.33
2023-02-28T10:54:36.514Z,22.45
2023-02-28T10:57:27.216Z,21.95
2023-02-28T11:00:20.229Z,24.63
2023-02-28T11:03:32.070Z,24.58
2023-02-28T11:06:23.370Z,23.52
2023-02-28T11:09:25.464Z,23.13
2023-02-28T11:12:25.713Z,21.38
2023-02-28T11:15:25.770Z,21.83
2023-02-28T11:18:25.784Z,20.40
2023-02-28T11:21:21.191Z,23.13
2023-02-28T11:24:21.705Z,20.20
2023-02-28T11:27:27.122Z,22.92
2023-02-28T11:30:33.810Z,24.15
2023-02-28T11:33:28.890Z,22.05
2023-02-28T11:36:21.259Z,24.88
2023-02-28T11:39:14.816Z,25.10
2023-02-28T11:42:14.269Z,22.10
2023-02-28T11:45:19.142Z,21.80
2023-02-28T11:48:18.729Z,25.10
2023-02-28T11:51:16.750Z,21.42
2023-02-28T11:54:20.040Z,24.90
2023-02-28T11:57:22.773Z,24.52
2023-02-28T12:00:38.406Z,23.47
2023-02-28T12:03:40.598Z,23.13
2023-02-28T12:06:35.691Z,22.60
2023-02-28T12:09:41.748Z,21.63
2023-02-28T12:12:41.589Z,22.77
2023-02-28T12:15:45.782Z,21.15
2023-02-28T12:18:52.799Z,22.13
2023-02-28T12:21:55.985Z,19.98
2023-02-28T12:25:02.944Z,20.55
2023-02-28T12:27:54.375Z,23.23
2023-02-28T12:30:51.552Z,19.80
2023-02-28T12:33:49.633Z,18.80
2023-02-28T12:36:39.584Z,15.93
2023-02-28T12:39:41.711Z,20.73
2023-02-28T12:42:45.881Z,18.45
2023-02-28T12:45:44.438Z,20.33
2023-02-28T12:48:40.677Z,21.40
2023-02-28T12:51:32.118Z,18.90
2023-02-28T12:54:27.383Z,21.52
2023-02-28T12:57:21.001Z,19.88
2023-02-28T13:00:16.326Z,21.23
2023-02-28T13:03:22.569Z,19.25
2023-02-28T13:06:22.900Z,17.73
2023-02-28T13:09:17.050Z,21.63
2023-02-28T13:12:15.007Z,18.42
2023-02-28T13:15:22.735Z,17.23
2023-02-28T13:18:35.006Z,18.85
2023-02-28T13:21:28.046Z,16.80
2023-02-28T13:24:40.435Z,16.73
2023-02-28T13:27:44.006Z,22.65
2023-02-28T13:31:01.601Z,18.80
2023-02-28T13:34:10.669Z,17.48
2023-02-28T13:36:58.317Z,17.02
2023-02-28T13:39:52.546Z,20.67
2023-02-28T13:42:51.085Z,20.27
2023-02-28T13:45:41.251Z,15.73
2023-02-28T13:48:32.133Z,16.50
2023-02-28T13:51:47.012Z,22.85
2023-02-28T13:54:46.071Z,13.65
2023-02-28T13:57:57.278Z,15.85
2023-02-28T14:01:11.301Z,16.88
2023-02-28T14:04:17.672Z,15.73
2023-02-28T14:07:06.235Z,27.20
2023-02-28T14:10:01.776Z,18.30
2023-02-28T14:13:06.518Z,19.77
2023-02-28T14:16:00.374Z,17.45
2023-02-28T14:18:55.257Z,18.55
2023-02-28T14:21:53.637Z,17.48
2023-02-28T14:24:58.767Z,16.77
2023-02-28T14:27:52.701Z,17.90
2023-02-28T14:30:59.104Z,18.30
2023-02-28T14:34:05.355Z,19.63
2023-02-28T14:36:55.280Z,15.75
2023-02-28T14:39:45.845Z,16.02
2023-02-28T14:42:36.323Z,20.05
2023-02-28T14:45:24.985Z,19.35
2023-02-28T14:48:18.448Z,16.88
2023-02-28T14:51:06.133Z,19.05
2023-02-28T14:54:00.069Z,18.08
2023-02-28T14:56:52.752Z,17.92
2023-02-28T14:59:40.422Z,20.77
2023-02-28T15:02:33.599Z,18.88
2023-02-28T15:05:28.143Z,17.30
2023-02-28T15:08:18.357Z,17.08
2023-02-28T15:11:11.826Z,16.92
2023-02-28T15:13:59.850Z,17.67
2023-02-28T15:16:49.084Z,17.27
2023-02-28T15:19:43.843Z,16.10
2023-02-28T15:22:38.350Z,16.65
2023-02-28T15:25:27.930Z,17.17
2023-02-28T15:28:21.508Z,16.75
2023-02-28T15:31:26.139Z,19.67
2023-02-28T15:34:23.292Z,16.50
2023-02-28T15:37:36.270Z,17.75
2023-02-28T15:40:23.447Z,18.30
2023-02-28T15:43:17.863Z,15.90
2023-02-28T15:46:12.165Z,16.95
2023-02-28T15:48:59.891Z,19.35
2023-02-28T15:51:47.050Z,16.65
2023-02-28T15:54:39.540Z,16.52
2023-02-28T15:57:31.608Z,16.40
2023-02-28T16:00:23.247Z,18.20
2023-02-28T16:03:25.473Z,18.58
2023-02-28T16:06:32.900Z,16.83
2023-02-28T16:09:19.938Z,20.65
2023-02-28T16:12:14.674Z,17.67
2023-02-28T16:15:06.006Z,17.77
2023-02-28T16:17:53.151Z,18.63
2023-02-28T16:20:40.558Z,16.70
2023-02-28T16:23:27.815Z,25.58
2023-02-28T16:26:21.805Z,16.42
2023-02-28T16:29:11.941Z,18.13
2023-02-28T16:32:00.340Z,17.33
2023-02-28T16:34:47.503Z,18.05
2023-02-28T16:37:34.734Z,20.40
2023-02-28T16:40:24.421Z,21.02
2023-02-28T16:43:17.531Z,16.95
2023-02-28T16:46:07.654Z,16.90
2023-02-28T16:48:54.726Z,19.38
2023-02-28T16:51:41.948Z,19.23
2023-02-28T16:54:29.517Z,22.15
2023-02-28T16:57:23.217Z,20.13
2023-02-28T17:00:14.512Z,19.95
2023-02-28T17:03:06.319Z,20.33
2023-02-28T17:05:54.056Z,21.40
2023-02-28T17:08:41.018Z,22.05
2023-02-28T17:11:28.928Z,20.10
2023-02-28T17:14:16.964Z,19.02
2023-02-28T17:17:04.202Z,22.67
2023-02-28T17:19:53.088Z,21.75
2023-02-28T17:22:40.321Z,20.38
2023-02-28T17:25:27.791Z,19.70
2023-02-28T17:28:14.977Z,20.92
2023-02-28T17:31:02.162Z,19.15
2023-02-28T17:33:49.495Z,23.45
2023-02-28T17:36:39.193Z,25.10
2023-02-28T17:39:26.035Z,19.52
2023-02-28T17:42:13.376Z,20.20
2023-02-28T17:45:00.587Z,21.52
2023-02-28T17:47:51.288Z,20.75
2023-02-28T17:50:38.258Z,21.50
2023-02-28T17:53:28.317Z,25.08
2023-02-28T17:56:17.907Z,20.35
2023-02-28T17:59:05.841Z,24.25
2023-02-28T18:01:52.985Z,24.00
2023-02-28T18:04:40.230Z,28.55
2023-02-28T18:07:27.879Z,25.42
2023-02-28T18:10:20.622Z,24.95
2023-02-28T18:13:08.738Z,31.65
2023-02-28T18:15:55.901Z,24.55
2023-02-28T18:18:43.174Z,26.48
2023-02-28T18:21:31.031Z,28.60
2023-02-28T18:24:20.480Z,30.27
2023-02-28T18:27:09.038Z,31.95
2023-02-28T18:29:56.351Z,31.38
2023-02-28T18:32:43.591Z,32.10
2023-02-28T18:35:44.941Z,26.92
2023-02-28T18:38:32.113Z,27.13
2023-02-28T18:41:21.852Z,25.45
2023-02-28T18:44:19.940Z,30.33
2023-02-28T18:47:08.329Z,28.17
2023-02-28T18:49:55.584Z,29.58
2023-02-28T18:52:42.445Z,28.10
2023-02-28T18:55:29.685Z,25.70
2023-02-28T18:58:16.848Z,26.10
2023-02-28T19:01:14.669Z,25.60
2023-02-28T19:04:03.633Z,25.58
2023-02-28T19:06:51.114Z,26.02
2023-02-28T19:09:38.426Z,27.25
2023-02-28T19:12:25.747Z,25.30
2023-02-28T19:15:14.143Z,24.20
2023-02-28T19:18:02.522Z,22.10
2023-02-28T19:20:49.904Z,22.13
2023-02-28T19:23:37.861Z,24.85
2023-02-28T19:26:27.115Z,26.85
2023-02-28T19:29:14.377Z,23.33
2023-02-28T19:32:04.203Z,25.38
2023-02-28T19:34:53.136Z,29.40
2023-02-28T19:37:41.467Z,24.08
2023-02-28T19:40:28.754Z,24.02
2023-02-28T19:43:16.058Z,26.27
2023-02-28T19:46:03.303Z,21.30
2023-02-28T19:48:50.557Z,24.00
2023-02-28T19:51:39.505Z,27.52
2023-02-28T19:54:28.100Z,29.20
2023-02-28T19:57:15.756Z,26.92
2023-02-28T20:00:02.799Z,25.65
2023-02-28T20:02:59.515Z,26.15
2023-02-28T20:05:47.409Z,26.77
2023-02-28T20:08:36.110Z,26.17
2023-02-28T20:11:23.519Z,26.35
2023-02-28T20:14:10.346Z,24.55
2023-02-28T20:16:58.339Z,25.52
2023-02-28T20:19:45.911Z,28.05
2023-02-28T20:22:33.520Z,26.20
2023-02-28T20:25:22.061Z,27.88
2023-02-28T20:28:09.148Z,25.48
2023-02-28T20:30:56.987Z,27.80
2023-02-28T20:33:46.784Z,24.35
2023-02-28T20:36:34.684Z,28.15
2023-02-28T20:39:22.620Z,28.48
2023-02-28T20:42:11.161Z,27.42
2023-02-28T20:44:58.195Z,25.42
2023-02-28T20:47:45.398Z,29.38
2023-02-28T20:50:32.955Z,28.48
2023-02-28T20:53:20.875Z,30.83
2023-02-28T20:56:11.476Z,27.33
2023-02-28T20:59:00.488Z,26.58
2023-02-28T21:01:47.755Z,26.48
2023-02-28T21:04:35.876Z,24.27
2023-02-28T21:07:22.973Z,28.70
2023-02-28T21:10:11.092Z,26.58
2023-02-28T21:12:58.307Z,29.30
2023-02-28T21:15:46.840Z,24.80
2023-02-28T21:18:35.802Z,28.75
2023-02-28T21:21:25.106Z,26.77
2023-02-28T21:24:12.818Z,23.52
2023-02-28T21:27:02.105Z,31.23
2023-02-28T21:29:48.840Z,26.20
2023-02-28T21:32:37.401Z,30.20
2023-02-28T21:35:24.614Z,23.85
2023-02-28T21:38:11.825Z,27.73
2023-02-28T21:41:04.526Z,27.13
2023-02-28T21:43:53.289Z,28.48
2023-02-28T21:46:40.772Z,27.25
2023-02-28T21:49:29.319Z,30.40
2023-02-28T21:52:16.528Z,29.98
2023-02-28T21:55:04.598Z,30.20
2023-02-28T21:57:52.345Z,23.77
2023-02-28T22:00:41.370Z,25.67
2023-02-28T22:03:29.051Z,24.90
2023-02-28T22:06:19.594Z,27.95
2023-02-28T22:09:09.355Z,24.70
2023-02-28T22:11:56.647Z,22.20
2023-02-28T22:14:45.376Z,29.25
2023-02-28T22:17:32.242Z,26.33
2023-02-28T22:20:19.470Z,26.02
2023-02-28T22:23:08.183Z,27.52
2023-02-28T22:25:55.659Z,28.13
2023-02-28T22:28:43.313Z,28.90
2023-02-28T22:31:33.562Z,28.40
2023-02-28T22:34:20.847Z,26.90
2023-02-28T22:37:08.404Z,31.85
2023-02-28T22:39:56.815Z,29.77
2023-02-28T22:42:44.119Z,29.35
2023-02-28T22:45:31.119Z,28.05
2023-02-28T22:48:17.946Z,27.77
2023-02-28T22:51:06.757Z,27.38
2023-02-28T22:53:55.373Z,26.77
2023-02-28T22:56:43.806Z,31.40
2023-02-28T22:59:30.848Z,26.20
2023-02-28T23:02:18.177Z,28.75
2023-02-28T23:05:05.608Z,27.25
2023-02-28T23:07:52.969Z,26.83
2023-02-28T23:10:43.230Z,29.10
2023-02-28T23:13:31.886Z,32.20
2023-02-28T23:16:19.317Z,26.55
2023-02-28T23:19:09.772Z,23.55
2023-02-28T23:21:57.925Z,29.40
2023-02-28T23:24:45.182Z,29.40
2023-02-28T23:27:32.156Z,27.35
2023-02-28T23:30:20.847Z,29.77
2023-02-28T23:33:07.993Z,29.08
2023-02-28T23:35:55.128Z,28.38
2023-02-28T23:38:47.403Z,25.83
2023-02-28T23:41:34.781Z,28.80
2023-02-28T23:44:22.130Z,26.00
2023-02-28T23:47:13.193Z,28.17
2023-02-28T23:50:00.343Z,28.88
2023-02-28T23:52:48.165Z,25.27
2023-02-28T23:55:35.377Z,26.45
2023-02-28T23:58:22.278Z,27.08
